sensor_id;sensor_type;location;lat;lon;timestamp;pressure;altitude;pressure_sealevel;temperature;humidity
40155;BME280;25875;48.202;16.334;2023-06-22T00:01:16;99398.88;;;24.04;60.25
40155;BME280;25875;48.202;16.334;2023-06-22T00:03:42;99407.69;;;24.06;60.04
40155;BME280;25875;48.202;16.334;2023-06-22T00:06:09;99397.34;;;24.10;59.66
40155;BME280;25875;48.202;16.334;2023-06-22T00:08:37;99396.84;;;23.98;59.90
40155;BME280;25875;48.202;16.334;2023-06-22T00:11:04;99399.34;;;23.91;60.33
40155;BME280;25875;48.202;16.334;2023-06-22T00:13:31;99387.34;;;23.86;60.78
40155;BME280;25875;48.202;16.334;2023-06-22T00:15:58;99397.50;;;23.84;61.04
40155;BME280;25875;48.202;16.334;2023-06-22T00:18:25;99348.09;;;23.57;61.03
40155;BME280;25875;48.202;16.334;2023-06-22T00:20:54;99390.72;;;23.88;60.37
40155;BME280;25875;48.202;16.334;2023-06-22T00:23:23;99386.16;;;23.88;60.15
40155;BME280;25875;48.202;16.334;2023-06-22T00:25:52;99384.13;;;23.82;60.66
40155;BME280;25875;48.202;16.334;2023-06-22T00:28:18;99377.03;;;23.81;60.52
40155;BME280;25875;48.202;16.334;2023-06-22T00:30:45;99379.91;;;23.80;60.55
40155;BME280;25875;48.202;16.334;2023-06-22T00:33:13;99355.69;;;23.54;61.14
40155;BME280;25875;48.202;16.334;2023-06-22T00:35:41;99380.56;;;23.65;61.05
40155;BME280;25875;48.202;16.334;2023-06-22T00:38:08;99378.38;;;23.69;60.70
40155;BME280;25875;48.202;16.334;2023-06-22T00:40:35;99382.25;;;23.75;60.25
40155;BME280;25875;48.202;16.334;2023-06-22T00:43:04;99355.69;;;23.62;60.24
40155;BME280;25875;48.202;16.334;2023-06-22T00:45:31;99372.28;;;23.59;61.17
40155;BME280;25875;48.202;16.334;2023-06-22T00:47:58;99330.94;;;23.24;61.08
40155;BME280;25875;48.202;16.334;2023-06-22T00:50:27;99310.31;;;23.15;61.49
40155;BME280;25875;48.202;16.334;2023-06-22T00:52:55;99266.50;;;22.87;61.39
40155;BME280;25875;48.202;16.334;2023-06-22T00:55:24;99360.91;;;23.39;61.89
40155;BME280;25875;48.202;16.334;2023-06-22T00:57:52;99375.78;;;23.43;61.94
40155;BME280;25875;48.202;16.334;2023-06-22T01:00:23;99386.28;;;23.46;61.83
40155;BME280;25875;48.202;16.334;2023-06-22T01:02:50;99375.97;;;23.50;61.61
40155;BME280;25875;48.202;16.334;2023-06-22T01:05:18;99327.19;;;23.09;61.99
40155;BME280;25875;48.202;16.334;2023-06-22T01:07:52;99363.97;;;23.44;61.88
40155;BME280;25875;48.202;16.334;2023-06-22T01:10:27;99352.44;;;23.34;62.81
40155;BME280;25875;48.202;16.334;2023-06-22T01:13:00;99357.69;;;23.27;63.07
40155;BME280;25875;48.202;16.334;2023-06-22T01:15:33;99352.31;;;23.44;62.21
40155;BME280;25875;48.202;16.334;2023-06-22T01:18:04;99352.13;;;23.37;62.39
40155;BME280;25875;48.202;16.334;2023-06-22T01:20:32;99349.06;;;23.32;62.64
40155;BME280;25875;48.202;16.334;2023-06-22T01:23:09;99352.63;;;23.32;62.57
40155;BME280;25875;48.202;16.334;2023-06-22T01:25:45;99359.16;;;23.22;62.94
40155;BME280;25875;48.202;16.334;2023-06-22T01:28:23;99270.06;;;22.54;63.79
40155;BME280;25875;48.202;16.334;2023-06-22T01:30:53;99352.47;;;22.92;64.00
40155;BME280;25875;48.202;16.334;2023-06-22T01:33:31;99331.47;;;22.78;64.14
40155;BME280;25875;48.202;16.334;2023-06-22T01:36:00;99350.13;;;22.97;63.92
40155;BME280;25875;48.202;16.334;2023-06-22T01:38:28;99309.00;;;22.69;63.49
40155;BME280;25875;48.202;16.334;2023-06-22T01:40:57;99366.03;;;23.08;63.25
40155;BME280;25875;48.202;16.334;2023-06-22T01:43:25;99367.56;;;23.11;63.12
40155;BME280;25875;48.202;16.334;2023-06-22T01:45:55;99363.34;;;23.08;63.37
40155;BME280;25875;48.202;16.334;2023-06-22T01:48:22;99360.13;;;23.04;63.22
40155;BME280;25875;48.202;16.334;2023-06-22T01:50:51;99357.06;;;22.99;63.58
40155;BME280;25875;48.202;16.334;2023-06-22T01:53:21;99228.56;;;22.21;63.73
40155;BME280;25875;48.202;16.334;2023-06-22T01:55:48;99343.34;;;22.85;64.14
40155;BME280;25875;48.202;16.334;2023-06-22T01:58:15;99346.38;;;22.90;63.85
40155;BME280;25875;48.202;16.334;2023-06-22T02:00:46;99342.50;;;22.92;63.71
40155;BME280;25875;48.202;16.334;2023-06-22T02:03:19;99351.94;;;22.88;64.08
40155;BME280;25875;48.202;16.334;2023-06-22T02:05:49;99350.75;;;22.83;64.21
40155;BME280;25875;48.202;16.334;2023-06-22T02:08:20;99329.91;;;22.67;64.19
40155;BME280;25875;48.202;16.334;2023-06-22T02:10:48;99345.84;;;22.78;64.59
40155;BME280;25875;48.202;16.334;2023-06-22T02:13:16;99347.38;;;22.81;64.32
40155;BME280;25875;48.202;16.334;2023-06-22T02:15:44;99336.41;;;22.82;64.34
40155;BME280;25875;48.202;16.334;2023-06-22T02:18:13;99345.66;;;22.80;64.13
40155;BME280;25875;48.202;16.334;2023-06-22T02:20:42;99337.41;;;22.81;63.80
40155;BME280;25875;48.202;16.334;2023-06-22T02:23:09;99283.53;;;22.46;63.73
40155;BME280;25875;48.202;16.334;2023-06-22T02:25:36;99341.59;;;22.76;63.87
40155;BME280;25875;48.202;16.334;2023-06-22T02:28:04;99341.41;;;22.69;64.21
40155;BME280;25875;48.202;16.334;2023-06-22T02:30:32;99306.56;;;22.32;64.89
40155;BME280;25875;48.202;16.334;2023-06-22T02:33:00;99323.69;;;22.40;64.97
40155;BME280;25875;48.202;16.334;2023-06-22T02:35:28;99347.50;;;22.45;65.46
40155;BME280;25875;48.202;16.334;2023-06-22T02:37:58;99337.13;;;22.58;64.78
40155;BME280;25875;48.202;16.334;2023-06-22T02:40:25;99327.69;;;22.62;64.53
40155;BME280;25875;48.202;16.334;2023-06-22T02:42:52;99333.25;;;22.61;64.41
40155;BME280;25875;48.202;16.334;2023-06-22T02:45:19;99334.13;;;22.61;64.68
40155;BME280;25875;48.202;16.334;2023-06-22T02:47:46;99293.91;;;22.32;64.46
40155;BME280;25875;48.202;16.334;2023-06-22T02:50:13;99332.59;;;22.59;64.41
40155;BME280;25875;48.202;16.334;2023-06-22T02:52:40;99338.91;;;22.50;65.01
40155;BME280;25875;48.202;16.334;2023-06-22T02:55:09;99335.44;;;22.57;64.35
40155;BME280;25875;48.202;16.334;2023-06-22T02:57:36;99334.59;;;22.57;64.42
40155;BME280;25875;48.202;16.334;2023-06-22T03:00:03;99304.06;;;22.38;64.60
40155;BME280;25875;48.202;16.334;2023-06-22T03:02:40;99310.25;;;22.31;64.68
40155;BME280;25875;48.202;16.334;2023-06-22T03:05:08;99339.09;;;22.48;64.49
40155;BME280;25875;48.202;16.334;2023-06-22T03:07:39;99337.78;;;22.34;64.88
40155;BME280;25875;48.202;16.334;2023-06-22T03:10:07;99342.59;;;22.40;64.41
40155;BME280;25875;48.202;16.334;2023-06-22T03:12:36;99344.16;;;22.25;65.06
40155;BME280;25875;48.202;16.334;2023-06-22T03:15:05;99240.47;;;21.58;65.57
40155;BME280;25875;48.202;16.334;2023-06-22T03:17:32;99340.22;;;22.20;65.19
40155;BME280;25875;48.202;16.334;2023-06-22T03:19:58;99313.03;;;22.13;64.88
40155;BME280;25875;48.202;16.334;2023-06-22T03:22:25;99282.88;;;21.92;64.82
40155;BME280;25875;48.202;16.334;2023-06-22T03:24:52;99338.75;;;22.25;64.51
40155;BME280;25875;48.202;16.334;2023-06-22T03:27:19;99342.75;;;21.95;66.13
40155;BME280;25875;48.202;16.334;2023-06-22T03:29:48;99342.53;;;21.89;66.41
40155;BME280;25875;48.202;16.334;2023-06-22T03:32:15;99344.94;;;22.18;65.19
40155;BME280;25875;48.202;16.334;2023-06-22T03:34:41;99337.53;;;22.20;64.90
40155;BME280;25875;48.202;16.334;2023-06-22T03:37:12;99341.41;;;22.17;65.02
40155;BME280;25875;48.202;16.334;2023-06-22T03:39:40;99339.19;;;22.13;65.16
40155;BME280;25875;48.202;16.334;2023-06-22T03:42:07;99336.63;;;22.11;65.35
40155;BME280;25875;48.202;16.334;2023-06-22T03:44:34;99342.53;;;21.89;66.65
40155;BME280;25875;48.202;16.334;2023-06-22T03:47:04;99221.97;;;21.20;66.76
40155;BME280;25875;48.202;16.334;2023-06-22T03:49:32;99336.03;;;21.99;66.38
40155;BME280;25875;48.202;16.334;2023-06-22T03:51:59;99339.50;;;22.09;65.83
40155;BME280;25875;48.202;16.334;2023-06-22T03:54:26;99348.13;;;22.13;65.65
40155;BME280;25875;48.202;16.334;2023-06-22T03:56:53;99328.28;;;21.96;65.77
40155;BME280;25875;48.202;16.334;2023-06-22T03:59:20;99344.09;;;22.17;65.70
40155;BME280;25875;48.202;16.334;2023-06-22T04:01:46;99340.22;;;22.20;65.91
40155;BME280;25875;48.202;16.334;2023-06-22T04:04:15;99251.84;;;21.70;65.66
40155;BME280;25875;48.202;16.334;2023-06-22T04:06:41;99331.13;;;22.21;65.77
40155;BME280;25875;48.202;16.334;2023-06-22T04:09:08;99304.50;;;22.00;65.52
40155;BME280;25875;48.202;16.334;2023-06-22T04:11:35;99323.06;;;22.29;65.32
40155;BME280;25875;48.202;16.334;2023-06-22T04:14:01;99335.41;;;22.31;65.55
40155;BME280;25875;48.202;16.334;2023-06-22T04:16:28;99325.47;;;22.32;65.76
40155;BME280;25875;48.202;16.334;2023-06-22T04:18:55;99328.84;;;22.34;65.63
40155;BME280;25875;48.202;16.334;2023-06-22T04:21:23;99321.97;;;22.39;65.52
40155;BME280;25875;48.202;16.334;2023-06-22T04:23:50;99290.13;;;22.17;65.82
40155;BME280;25875;48.202;16.334;2023-06-22T04:26:17;99305.22;;;22.36;65.49
40155;BME280;25875;48.202;16.334;2023-06-22T04:28:46;99231.63;;;21.92;65.31
40155;BME280;25875;48.202;16.334;2023-06-22T04:31:17;99314.69;;;22.40;65.78
40155;BME280;25875;48.202;16.334;2023-06-22T04:33:43;99314.09;;;22.46;65.58
40155;BME280;25875;48.202;16.334;2023-06-22T04:36:10;99314.94;;;22.47;65.93
40155;BME280;25875;48.202;16.334;2023-06-22T04:38:40;99325.50;;;22.40;66.05
40155;BME280;25875;48.202;16.334;2023-06-22T04:41:07;99319.97;;;22.41;66.08
40155;BME280;25875;48.202;16.334;2023-06-22T04:43:39;99288.63;;;22.23;65.61
40155;BME280;25875;48.202;16.334;2023-06-22T04:46:06;99331.06;;;22.56;65.63
40155;BME280;25875;48.202;16.334;2023-06-22T04:48:33;99326.94;;;22.52;65.93
40155;BME280;25875;48.202;16.334;2023-06-22T04:51:00;99331.06;;;22.56;65.51
40155;BME280;25875;48.202;16.334;2023-06-22T04:53:29;99331.91;;;22.57;65.53
40155;BME280;25875;48.202;16.334;2023-06-22T04:55:57;99331.66;;;22.50;65.87
40155;BME280;25875;48.202;16.334;2023-06-22T04:58:24;99334.75;;;22.55;65.43
40155;BME280;25875;48.202;16.334;2023-06-22T05:00:52;99342.22;;;22.61;65.28
40155;BME280;25875;48.202;16.334;2023-06-22T05:03:22;99348.47;;;22.62;65.45
40155;BME280;25875;48.202;16.334;2023-06-22T05:05:51;99342.56;;;22.66;65.11
40155;BME280;25875;48.202;16.334;2023-06-22T05:08:19;99341.22;;;22.62;65.61
40155;BME280;25875;48.202;16.334;2023-06-22T05:10:46;99305.16;;;22.46;65.21
40155;BME280;25875;48.202;16.334;2023-06-22T05:13:14;99354.72;;;22.62;64.89
40155;BME280;25875;48.202;16.334;2023-06-22T05:15:41;99355.75;;;22.69;64.30
40155;BME280;25875;48.202;16.334;2023-06-22T05:18:08;99351.56;;;22.75;64.05
40155;BME280;25875;48.202;16.334;2023-06-22T05:20:37;99348.34;;;22.71;63.76
40155;BME280;25875;48.202;16.334;2023-06-22T05:23:03;99335.66;;;22.64;63.93
40155;BME280;25875;48.202;16.334;2023-06-22T05:25:30;99348.69;;;22.77;64.12
40155;BME280;25875;48.202;16.334;2023-06-22T05:27:58;99352.91;;;22.71;63.88
40155;BME280;25875;48.202;16.334;2023-06-22T05:30:26;99354.44;;;22.73;63.91
40155;BME280;25875;48.202;16.334;2023-06-22T05:32:53;99242.59;;;21.98;63.39
40155;BME280;25875;48.202;16.334;2023-06-22T05:35:20;99318.22;;;22.58;63.60
40155;BME280;25875;48.202;16.334;2023-06-22T05:37:47;99340.94;;;22.82;63.54
40155;BME280;25875;48.202;16.334;2023-06-22T05:40:14;99338.38;;;22.72;63.70
40155;BME280;25875;48.202;16.334;2023-06-22T05:42:41;99332.78;;;22.65;63.76
40155;BME280;25875;48.202;16.334;2023-06-22T05:45:09;99339.72;;;22.68;63.63
40155;BME280;25875;48.202;16.334;2023-06-22T05:47:37;99328.78;;;22.78;63.26
40155;BME280;25875;48.202;16.334;2023-06-22T05:50:04;99333.19;;;22.79;63.04
40155;BME280;25875;48.202;16.334;2023-06-22T05:52:34;99321.69;;;22.77;62.63
40155;BME280;25875;48.202;16.334;2023-06-22T05:55:02;99328.66;;;22.95;62.33
40155;BME280;25875;48.202;16.334;2023-06-22T05:57:29;99335.59;;;22.98;62.41
40155;BME280;25875;48.202;16.334;2023-06-22T05:59:56;99334.09;;;23.03;61.98
40155;BME280;25875;48.202;16.334;2023-06-22T06:02:22;99343.41;;;23.09;62.07
40155;BME280;25875;48.202;16.334;2023-06-22T06:04:52;99335.47;;;23.08;61.66
40155;BME280;25875;48.202;16.334;2023-06-22T06:07:20;99348.81;;;23.09;61.40
40155;BME280;25875;48.202;16.334;2023-06-22T06:09:47;99345.44;;;23.15;61.55
40155;BME280;25875;48.202;16.334;2023-06-22T06:12:14;99352.38;;;23.18;61.67
40155;BME280;25875;48.202;16.334;2023-06-22T06:14:41;99342.94;;;23.22;61.62
40155;BME280;25875;48.202;16.334;2023-06-22T06:17:08;99348.00;;;23.25;61.81
40155;BME280;25875;48.202;16.334;2023-06-22T06:19:35;99349.19;;;23.22;61.37
40155;BME280;25875;48.202;16.334;2023-06-22T06:22:03;99355.66;;;23.29;61.54
40155;BME280;25875;48.202;16.334;2023-06-22T06:24:30;99315.03;;;23.13;61.64
40155;BME280;25875;48.202;16.334;2023-06-22T06:26:57;99229.66;;;22.70;61.30
40155;BME280;25875;48.202;16.334;2023-06-22T06:29:23;99345.19;;;23.43;61.88
40155;BME280;25875;48.202;16.334;2023-06-22T06:31:50;99356.69;;;23.36;62.23
40155;BME280;25875;48.202;16.334;2023-06-22T06:34:17;99352.47;;;23.42;62.01
40155;BME280;25875;48.202;16.334;2023-06-22T06:36:44;99357.88;;;23.50;62.17
40155;BME280;25875;48.202;16.334;2023-06-22T06:39:12;99359.41;;;23.45;62.20
40155;BME280;25875;48.202;16.334;2023-06-22T06:41:39;99354.69;;;23.47;62.31
40155;BME280;25875;48.202;16.334;2023-06-22T06:44:06;99314.75;;;23.32;62.45
40155;BME280;25875;48.202;16.334;2023-06-22T06:46:32;99344.34;;;23.42;62.15
40155;BME280;25875;48.202;16.334;2023-06-22T06:48:59;99348.09;;;23.49;62.30
40155;BME280;25875;48.202;16.334;2023-06-22T06:51:26;99326.63;;;23.56;62.51
40155;BME280;25875;48.202;16.334;2023-06-22T06:53:53;99303.97;;;23.57;62.41
40155;BME280;25875;48.202;16.334;2023-06-22T06:56:21;99327.31;;;23.74;62.38
40155;BME280;25875;48.202;16.334;2023-06-22T06:58:49;99325.44;;;23.83;62.35
40155;BME280;25875;48.202;16.334;2023-06-22T07:01:16;99322.06;;;23.89;62.68
40155;BME280;25875;48.202;16.334;2023-06-22T07:03:45;99325.94;;;23.94;62.99
40155;BME280;25875;48.202;16.334;2023-06-22T07:06:12;99323.59;;;24.08;62.69
40155;BME280;25875;48.202;16.334;2023-06-22T07:08:39;99325.59;;;24.14;62.84
40155;BME280;25875;48.202;16.334;2023-06-22T07:11:06;99322.72;;;24.23;62.75
40155;BME280;25875;48.202;16.334;2023-06-22T07:13:34;99322.38;;;24.26;61.75
40155;BME280;25875;48.202;16.334;2023-06-22T07:16:01;99277.88;;;23.96;61.39
40155;BME280;25875;48.202;16.334;2023-06-22T07:18:28;99315.25;;;24.25;61.17
40155;BME280;25875;48.202;16.334;2023-06-22T07:20:55;99319.97;;;24.40;61.30
40155;BME280;25875;48.202;16.334;2023-06-22T07:23:22;99315.31;;;24.56;61.18
40155;BME280;25875;48.202;16.334;2023-06-22T07:25:49;99318.66;;;24.75;60.77
40155;BME280;25875;48.202;16.334;2023-06-22T07:28:16;99293.78;;;24.71;61.01
40155;BME280;25875;48.202;16.334;2023-06-22T07:30:44;99292.81;;;24.95;60.55
40155;BME280;25875;48.202;16.334;2023-06-22T07:33:12;99312.47;;;25.28;59.97
40155;BME280;25875;48.202;16.334;2023-06-22T07:35:39;99309.03;;;25.42;59.72
40155;BME280;25875;48.202;16.334;2023-06-22T07:38:06;99315.34;;;25.35;58.89
40155;BME280;25875;48.202;16.334;2023-06-22T07:40:34;99316.19;;;25.58;59.32
40155;BME280;25875;48.202;16.334;2023-06-22T07:43:01;99313.97;;;25.62;58.58
40155;BME280;25875;48.202;16.334;2023-06-22T07:45:28;99315.72;;;25.92;57.85
40155;BME280;25875;48.202;16.334;2023-06-22T07:47:57;99312.13;;;26.00;57.46
40155;BME280;25875;48.202;16.334;2023-06-22T07:50:24;99322.72;;;26.09;56.78
40155;BME280;25875;48.202;16.334;2023-06-22T07:52:51;99305.34;;;25.96;56.81
40155;BME280;25875;48.202;16.334;2023-06-22T07:55:19;99268.53;;;25.93;56.73
40155;BME280;25875;48.202;16.334;2023-06-22T07:57:47;99282.19;;;26.22;56.50
40155;BME280;25875;48.202;16.334;2023-06-22T08:00:14;99305.69;;;26.60;55.68
40155;BME280;25875;48.202;16.334;2023-06-22T08:02:42;99301.19;;;26.81;54.95
40155;BME280;25875;48.202;16.334;2023-06-22T08:05:10;99304.47;;;26.92;54.60
40155;BME280;25875;48.202;16.334;2023-06-22T08:07:37;99310.63;;;27.00;54.74
40155;BME280;25875;48.202;16.334;2023-06-22T08:10:05;99307.38;;;26.90;54.25
40155;BME280;25875;48.202;16.334;2023-06-22T08:12:32;99299.69;;;26.94;52.48
40155;BME280;25875;48.202;16.334;2023-06-22T08:14:59;99299.03;;;26.92;53.73
40155;BME280;25875;48.202;16.334;2023-06-22T08:17:26;99299.91;;;27.13;52.33
40155;BME280;25875;48.202;16.334;2023-06-22T08:19:53;99292.66;;;27.21;52.81
40155;BME280;25875;48.202;16.334;2023-06-22T08:22:22;99295.09;;;27.30;51.43
40155;BME280;25875;48.202;16.334;2023-06-22T08:24:48;99308.34;;;27.18;52.66
40155;BME280;25875;48.202;16.334;2023-06-22T08:27:15;99308.75;;;27.01;52.83
40155;BME280;25875;48.202;16.334;2023-06-22T08:29:44;98981.13;;;25.24;51.79
40155;BME280;25875;48.202;16.334;2023-06-22T08:32:11;99310.91;;;27.41;51.61
40155;BME280;25875;48.202;16.334;2023-06-22T08:34:38;99299.88;;;27.64;51.23
40155;BME280;25875;48.202;16.334;2023-06-22T08:37:07;99274.44;;;27.36;50.39
40155;BME280;25875;48.202;16.334;2023-06-22T08:39:35;99270.81;;;27.50;50.43
40155;BME280;25875;48.202;16.334;2023-06-22T08:42:03;99290.75;;;27.57;50.39
40155;BME280;25875;48.202;16.334;2023-06-22T08:44:30;99113.56;;;26.39;50.48
40155;BME280;25875;48.202;16.334;2023-06-22T08:46:57;99295.03;;;27.45;49.94
40155;BME280;25875;48.202;16.334;2023-06-22T08:49:24;99288.50;;;27.82;50.00
40155;BME280;25875;48.202;16.334;2023-06-22T08:51:51;99282.22;;;27.81;49.22
40155;BME280;25875;48.202;16.334;2023-06-22T08:54:19;99281.06;;;27.69;50.18
40155;BME280;25875;48.202;16.334;2023-06-22T08:56:48;99273.69;;;27.85;49.88
40155;BME280;25875;48.202;16.334;2023-06-22T08:59:15;99283.22;;;28.02;49.08
40155;BME280;25875;48.202;16.334;2023-06-22T09:01:42;99279.75;;;27.87;49.55
40155;BME280;25875;48.202;16.334;2023-06-22T09:04:14;99198.41;;;27.56;49.33
40155;BME280;25875;48.202;16.334;2023-06-22T09:06:41;99274.03;;;28.03;48.88
40155;BME280;25875;48.202;16.334;2023-06-22T09:09:10;99275.84;;;28.24;47.69
40155;BME280;25875;48.202;16.334;2023-06-22T09:11:37;99218.94;;;28.07;47.30
40155;BME280;25875;48.202;16.334;2023-06-22T09:14:06;99278.41;;;28.32;48.09
40155;BME280;25875;48.202;16.334;2023-06-22T09:16:33;99277.56;;;28.31;47.92
40155;BME280;25875;48.202;16.334;2023-06-22T09:19:00;99273.25;;;28.43;47.68
40155;BME280;25875;48.202;16.334;2023-06-22T09:21:27;99266.03;;;28.64;47.90
40155;BME280;25875;48.202;16.334;2023-06-22T09:23:54;99246.09;;;28.63;47.29
40155;BME280;25875;48.202;16.334;2023-06-22T09:26:22;99278.69;;;28.85;47.78
40155;BME280;25875;48.202;16.334;2023-06-22T09:28:49;99273.00;;;28.80;47.22
40155;BME280;25875;48.202;16.334;2023-06-22T09:31:17;99258.44;;;28.59;47.99
40155;BME280;25875;48.202;16.334;2023-06-22T09:33:50;99265.31;;;28.96;47.65
40155;BME280;25875;48.202;16.334;2023-06-22T09:36:17;99263.28;;;29.18;47.10
40155;BME280;25875;48.202;16.334;2023-06-22T09:38:44;99252.78;;;29.15;46.75
40155;BME280;25875;48.202;16.334;2023-06-22T09:41:11;99257.19;;;29.10;46.17
40155;BME280;25875;48.202;16.334;2023-06-22T09:43:38;99252.78;;;29.08;47.23
40155;BME280;25875;48.202;16.334;2023-06-22T09:46:04;99255.75;;;29.27;46.58
40155;BME280;25875;48.202;16.334;2023-06-22T09:48:33;99252.38;;;29.12;46.76
40155;BME280;25875;48.202;16.334;2023-06-22T09:51:00;99140.78;;;28.56;47.05
40155;BME280;25875;48.202;16.334;2023-06-22T09:53:27;99238.97;;;29.30;46.36
40155;BME280;25875;48.202;16.334;2023-06-22T09:55:55;99243.56;;;29.16;47.27
40155;BME280;25875;48.202;16.334;2023-06-22T09:58:22;99249.22;;;29.21;46.79
40155;BME280;25875;48.202;16.334;2023-06-22T10:00:49;99200.72;;;29.03;46.03
40155;BME280;25875;48.202;16.334;2023-06-22T10:03:16;99252.59;;;29.23;46.20
40155;BME280;25875;48.202;16.334;2023-06-22T10:05:44;99233.06;;;29.20;46.25
40155;BME280;25875;48.202;16.334;2023-06-22T10:08:11;99234.34;;;29.37;46.54
40155;BME280;25875;48.202;16.334;2023-06-22T10:10:38;99229.75;;;29.51;46.26
40155;BME280;25875;48.202;16.334;2023-06-22T10:13:08;99240.84;;;29.36;45.93
40155;BME280;25875;48.202;16.334;2023-06-22T10:15:35;99229.09;;;29.42;46.72
40155;BME280;25875;48.202;16.334;2023-06-22T10:18:02;99245.09;;;29.58;46.01
40155;BME280;25875;48.202;16.334;2023-06-22T10:20:29;99232.25;;;29.52;45.75
40155;BME280;25875;48.202;16.334;2023-06-22T10:22:57;99231.44;;;29.65;46.33
40155;BME280;25875;48.202;16.334;2023-06-22T10:25:24;99229.94;;;29.36;46.71
40155;BME280;25875;48.202;16.334;2023-06-22T10:27:51;99228.69;;;29.45;45.45
40155;BME280;25875;48.202;16.334;2023-06-22T10:30:19;99230.16;;;29.34;45.90
40155;BME280;25875;48.202;16.334;2023-06-22T10:32:45;99231.84;;;29.49;45.43
40155;BME280;25875;48.202;16.334;2023-06-22T10:35:12;99230.16;;;29.54;45.80
40155;BME280;25875;48.202;16.334;2023-06-22T10:37:42;99221.78;;;29.69;45.06
40155;BME280;25875;48.202;16.334;2023-06-22T10:40:12;99220.94;;;29.68;43.99
40155;BME280;25875;48.202;16.334;2023-06-22T10:42:39;99221.97;;;29.54;44.22
40155;BME280;25875;48.202;16.334;2023-06-22T10:45:07;99220.09;;;29.61;43.94
40155;BME280;25875;48.202;16.334;2023-06-22T10:47:34;99224.06;;;29.46;44.20
40155;BME280;25875;48.202;16.334;2023-06-22T10:50:01;99217.34;;;29.55;43.49
40155;BME280;25875;48.202;16.334;2023-06-22T10:52:28;99210.41;;;29.52;43.70
40155;BME280;25875;48.202;16.334;2023-06-22T10:54:54;99212.53;;;29.50;43.99
40155;BME280;25875;48.202;16.334;2023-06-22T10:57:23;99211.06;;;29.61;42.84
40155;BME280;25875;48.202;16.334;2023-06-22T10:59:49;99198.88;;;29.70;43.99
40155;BME280;25875;48.202;16.334;2023-06-22T11:02:16;99203.91;;;29.53;43.79
40155;BME280;25875;48.202;16.334;2023-06-22T11:04:43;99200.13;;;29.28;43.79
40155;BME280;25875;48.202;16.334;2023-06-22T11:07:11;99182.28;;;29.19;43.35
40155;BME280;25875;48.202;16.334;2023-06-22T11:09:38;99190.03;;;29.28;43.41
40155;BME280;25875;48.202;16.334;2023-06-22T11:12:06;99189.81;;;29.23;43.54
40155;BME280;25875;48.202;16.334;2023-06-22T11:14:34;99175.75;;;29.06;43.58
40155;BME280;25875;48.202;16.334;2023-06-22T11:17:01;99171.75;;;29.09;43.12
40155;BME280;25875;48.202;16.334;2023-06-22T11:19:28;99173.88;;;29.14;43.58
40155;BME280;25875;48.202;16.334;2023-06-22T11:21:55;99170.72;;;29.10;43.13
40155;BME280;25875;48.202;16.334;2023-06-22T11:24:22;99174.28;;;29.17;43.76
40155;BME280;25875;48.202;16.334;2023-06-22T11:26:48;99164.63;;;29.08;43.90
40155;BME280;25875;48.202;16.334;2023-06-22T11:29:15;99161.91;;;29.41;43.25
40155;BME280;25875;48.202;16.334;2023-06-22T11:31:43;99166.06;;;28.97;43.10
40155;BME280;25875;48.202;16.334;2023-06-22T11:34:10;99178.91;;;29.23;43.10
40155;BME280;25875;48.202;16.334;2023-06-22T11:36:37;99160.00;;;29.08;43.12
40155;BME280;25875;48.202;16.334;2023-06-22T11:39:03;99168.41;;;29.20;43.28
40155;BME280;25875;48.202;16.334;2023-06-22T11:41:31;99161.69;;;29.43;43.62
40155;BME280;25875;48.202;16.334;2023-06-22T11:43:58;99165.91;;;29.38;42.94
40155;BME280;25875;48.202;16.334;2023-06-22T11:46:25;99159.19;;;29.21;42.85
40155;BME280;25875;48.202;16.334;2023-06-22T11:48:53;99162.09;;;29.06;42.94
40155;BME280;25875;48.202;16.334;2023-06-22T11:53:36;99161.28;;;29.39;43.06
40155;BME280;25875;48.202;16.334;2023-06-22T11:56:03;99151.41;;;29.12;43.23
40155;BME280;25875;48.202;16.334;2023-06-22T11:58:30;99167.16;;;29.29;43.44
40155;BME280;25875;48.202;16.334;2023-06-22T12:00:57;99161.28;;;29.39;43.78
40155;BME280;25875;48.202;16.334;2023-06-22T12:03:23;99159.41;;;29.59;42.51
40155;BME280;25875;48.202;16.334;2023-06-22T12:05:50;99150.16;;;29.74;42.55
40155;BME280;25875;48.202;16.334;2023-06-22T12:08:17;99151.63;;;29.63;42.88
40155;BME280;25875;48.202;16.334;2023-06-22T12:10:46;99156.03;;;29.31;43.35
40155;BME280;25875;48.202;16.334;2023-06-22T12:13:13;99121.19;;;29.06;42.99
40155;BME280;25875;48.202;16.334;2023-06-22T12:15:39;99154.97;;;29.52;42.88
40155;BME280;25875;48.202;16.334;2023-06-22T12:18:06;99153.28;;;29.57;43.26
40155;BME280;25875;48.202;16.334;2023-06-22T12:20:34;99154.97;;;29.45;42.68
40155;BME280;25875;48.202;16.334;2023-06-22T12:23:01;99144.25;;;29.57;42.24
40155;BME280;25875;48.202;16.334;2023-06-22T12:25:28;99145.53;;;29.61;43.37
40155;BME280;25875;48.202;16.334;2023-06-22T12:27:56;99148.25;;;29.48;43.27
40155;BME280;25875;48.202;16.334;2023-06-22T12:30:23;99155.19;;;29.37;43.59
40155;BME280;25875;48.202;16.334;2023-06-22T12:32:50;99139.03;;;29.35;43.61
40155;BME280;25875;48.202;16.334;2023-06-22T12:35:17;99142.38;;;29.24;43.93
40155;BME280;25875;48.202;16.334;2023-06-22T12:37:44;99140.06;;;29.34;44.08
40155;BME280;25875;48.202;16.334;2023-06-22T12:40:11;99130.59;;;29.57;42.80
40155;BME280;25875;48.202;16.334;2023-06-22T12:42:38;99131.03;;;29.40;42.93
40155;BME280;25875;48.202;16.334;2023-06-22T12:45:08;99101.22;;;29.39;43.18
40155;BME280;25875;48.202;16.334;2023-06-22T12:47:34;99114.25;;;29.63;42.81
40155;BME280;25875;48.202;16.334;2023-06-22T12:50:01;99117.59;;;29.39;43.41
40155;BME280;25875;48.202;16.334;2023-06-22T12:52:30;99118.84;;;29.50;42.88
40155;BME280;25875;48.202;16.334;2023-06-22T12:54:56;99087.16;;;29.35;42.97